Time;durP1;ratioP1;P1;durP2;ratioP2;P2;SDS_P1;SDS_P2;PMS_P1;PMS_P2;Temp;Humidity;BMP_temperature;BMP_pressure;BME280_temperature;BME280_humidity;BME280_pressure;Samples;Min_cycle;Max_cycle;Signal;HPM_P1;HPM_P2
2022/09/22 00:01:28;;;;;;;7.75;6.50;;;;;;;7.14;82.03;102420.75;4914345;29;20045;-68
2022/09/22 00:04:04;;;;;;;10.18;5.78;;;;;;;7.14;82.15;102410.25;4916245;29;20066;-68
2022/09/22 00:06:42;;;;;;;9.43;6.63;;;;;;;7.12;81.96;102418.13;4916731;29;20083;-68
2022/09/22 00:09:12;;;;;;;6.57;5.78;;;;;;;7.10;82.05;102413.72;4914306;29;20052;-68
2022/09/22 00:11:46;;;;;;;8.15;6.63;;;;;;;7.08;82.15;102416.31;4914392;29;20470;-68
2022/09/22 00:14:21;;;;;;;9.60;6.50;;;;;;;7.03;82.13;102418.03;4911569;29;20068;-68
2022/09/22 00:16:57;;;;;;;6.70;6.00;;;;;;;7.02;82.12;102418.91;4914817;29;20045;-67
2022/09/22 00:19:32;;;;;;;8.93;6.53;;;;;;;6.99;82.11;102417.13;4914115;29;20429;-67
2022/09/22 00:21:59;;;;;;;10.70;6.80;;;;;;;6.98;82.04;102414.47;4913586;29;20143;-67
2022/09/22 00:24:28;;;;;;;9.77;7.00;;;;;;;6.97;82.36;102408.38;4914813;29;20048;-68
2022/09/22 00:26:58;;;;;;;9.63;6.00;;;;;;;6.96;82.49;102410.97;4913603;29;20059;-66
2022/09/22 00:29:27;;;;;;;10.40;6.15;;;;;;;6.96;82.70;102409.22;4906930;29;20421;-66
2022/09/22 00:31:57;;;;;;;8.52;6.20;;;;;;;6.95;82.83;102406.59;4913064;29;20807;-66
2022/09/22 00:34:30;;;;;;;8.88;6.47;;;;;;;6.93;82.75;102400.47;4909656;29;20041;-66
2022/09/22 00:36:57;;;;;;;7.95;6.32;;;;;;;6.90;82.95;102401.31;4914974;29;20518;-66
2022/09/22 00:39:26;;;;;;;10.38;6.10;;;;;;;6.89;83.12;102406.53;4912774;29;20145;-66
2022/09/22 00:41:53;;;;;;;9.60;6.40;;;;;;;6.89;83.14;102402.16;4915256;29;20458;-66
2022/09/22 00:44:25;;;;;;;8.63;6.40;;;;;;;6.87;83.06;102392.53;4913944;29;20043;-66
2022/09/22 00:46:57;;;;;;;9.70;6.65;;;;;;;6.86;82.96;102398.66;4913579;29;20044;-66
2022/09/22 00:49:43;;;;;;;9.52;6.57;;;;;;;6.83;83.02;102399.47;4912209;29;21747;-67
2022/09/22 00:52:18;;;;;;;9.10;7.15;;;;;;;6.81;83.00;102390.72;4913587;29;20048;-67
2022/09/22 00:54:48;;;;;;;9.07;6.53;;;;;;;6.80;82.86;102388.97;4914309;29;20549;-67
2022/09/22 00:57:22;;;;;;;9.38;7.13;;;;;;;6.79;82.86;102392.47;4914264;29;20051;-67
2022/09/22 00:59:52;;;;;;;10.55;7.10;;;;;;;6.77;83.03;102391.56;4910289;29;20040;-70
2022/09/22 01:02:20;;;;;;;9.38;7.50;;;;;;;6.73;82.96;102385.41;4913354;29;20060;-70
2022/09/22 01:04:50;;;;;;;9.75;7.35;;;;;;;6.70;83.05;102385.38;4914797;29;20537;-67
2022/09/22 01:07:21;;;;;;;7.97;6.68;;;;;;;6.68;83.20;102379.22;4913080;29;20044;-67
2022/09/22 01:09:48;;;;;;;10.98;6.75;;;;;;;6.64;83.15;102380.94;4914707;29;20051;-67
2022/09/22 01:12:16;;;;;;;10.60;7.65;;;;;;;6.62;83.34;102380.03;4910122;29;20054;-68
2022/09/22 01:15:06;;;;;;;9.75;7.88;;;;;;;6.61;83.28;102369.53;4911984;29;20055;-68
2022/09/22 01:17:50;;;;;;;9.80;7.15;;;;;;;6.61;83.14;102377.41;4911318;29;20049;-68
2022/09/22 01:20:44;;;;;;;10.75;7.38;;;;;;;6.58;83.19;102373.03;4908038;29;20114;-68
2022/09/22 01:23:31;;;;;;;11.38;8.25;;;;;;;6.55;82.94;102369.50;4902135;29;20048;-68
2022/09/22 01:26:37;;;;;;;11.65;7.90;;;;;;;6.50;83.06;102364.19;4910298;29;20041;-69
2022/09/22 01:29:36;;;;;;;;;;;;;;;6.46;82.85;102363.25;4912201;29;20047;-68
2022/09/22 01:32:53;;;;;;;12.48;7.40;;;;;;;6.45;83.23;102358.00;4910381;29;19983;-68
2022/09/22 01:35:35;;;;;;;8.60;7.45;;;;;;;6.42;83.42;102356.25;4914371;29;20477;-68
2022/09/22 01:38:20;;;;;;;9.07;7.60;;;;;;;6.41;83.34;102362.34;4914593;29;20564;-68
2022/09/22 01:40:59;;;;;;;12.23;7.53;;;;;;;6.39;83.39;102366.69;4912935;29;20469;-68
2022/09/22 01:43:55;;;;;;;13.35;8.18;;;;;;;6.35;83.64;102357.91;4909212;29;20095;-69
2022/09/22 01:46:37;;;;;;;12.40;7.97;;;;;;;6.35;83.46;102363.16;4909071;29;20041;-69
2022/09/22 01:49:10;;;;;;;13.95;7.75;;;;;;;6.31;83.64;102353.47;4910745;29;20501;-68
2022/09/22 01:51:46;;;;;;;11.77;7.35;;;;;;;6.30;83.85;102353.47;4911229;29;20155;-67
2022/09/22 01:54:31;;;;;;;12.50;8.23;;;;;;;6.30;84.06;102348.25;4913808;29;20575;-67
2022/09/22 01:57:17;;;;;;;11.52;8.52;;;;;;;6.29;83.83;102349.09;4912827;29;20081;-67
2022/09/22 01:59:53;;;;;;;10.20;7.47;;;;;;;6.24;83.85;102343.81;4911395;29;20531;-67
2022/09/22 02:03:00;;;;;;;9.82;7.45;;;;;;;6.22;83.98;102338.56;4903904;29;20983;-67
2022/09/22 02:06:03;;;;;;;14.00;7.50;;;;;;;6.17;83.79;102336.75;4914189;29;20134;-67
2022/09/22 02:08:50;;;;;;;10.50;7.55;;;;;;;6.13;83.90;102334.94;4912168;29;22140;-67
2022/09/22 02:11:17;;;;;;;10.82;8.73;;;;;;;6.09;84.12;102323.56;4912836;29;20104;-67
2022/09/22 02:13:46;;;;;;;13.93;9.00;;;;;;;6.11;84.13;102334.03;4914009;29;20052;-67
2022/09/22 02:16:18;;;;;;;11.18;7.53;;;;;;;6.09;84.14;102323.56;4912064;29;20041;-67
2022/09/22 02:19:17;;;;;;;11.75;7.82;;;;;;;6.10;83.99;102327.06;4913434;29;20077;-67
2022/09/22 02:21:47;;;;;;;11.85;7.82;;;;;;;6.06;84.19;102327.03;4903379;29;20068;-70
2022/09/22 02:24:29;;;;;;;10.48;7.90;;;;;;;6.06;84.21;102327.03;4904855;29;20423;-68
2022/09/22 02:27:00;;;;;;;10.77;7.93;;;;;;;6.06;84.27;102323.50;4908450;29;20040;-67
2022/09/22 02:29:34;;;;;;;9.73;7.40;;;;;;;6.04;84.12;102320.88;4909262;29;20045;-68
2022/09/22 02:32:08;;;;;;;11.63;7.60;;;;;;;6.03;84.11;102315.63;4909819;29;20536;-67
2022/09/22 02:34:35;;;;;;;11.10;8.13;;;;;;;6.00;84.51;102315.59;4913295;29;20072;-67
2022/09/22 02:37:16;;;;;;;9.73;8.10;;;;;;;5.99;84.72;102319.03;4909017;29;20080;-67
2022/09/22 02:39:56;;;;;;;11.95;7.63;;;;;;;5.96;84.42;102319.88;4912563;29;20045;-67
2022/09/22 02:42:38;;;;;;;12.07;8.07;;;;;;;5.96;84.34;102316.38;4911394;29;20096;-67
2022/09/22 02:45:27;;;;;;;9.52;7.97;;;;;;;5.93;84.29;102324.19;4912728;29;20040;-67
2022/09/22 02:48:05;;;;;;;13.80;8.27;;;;;;;5.91;84.34;102316.31;4908092;29;20043;-67
2022/09/22 02:50:34;;;;;;;11.88;9.00;;;;;;;5.89;84.41;102310.19;4902283;29;20045;-67
2022/09/22 02:53:09;;;;;;;11.68;9.05;;;;;;;5.88;84.41;102313.69;4912092;29;20135;-67
2022/09/22 02:55:36;;;;;;;10.73;8.07;;;;;;;5.86;84.48;102312.78;4912629;29;20051;-67
2022/09/22 02:58:04;;;;;;;13.25;8.45;;;;;;;5.83;84.42;102310.09;4912125;29;20065;-67
2022/09/22 03:00:31;;;;;;;11.18;9.30;;;;;;;5.80;84.38;102310.09;4913502;29;20048;-67
2022/09/22 03:02:59;;;;;;;11.02;8.75;;;;;;;5.78;84.49;102314.41;4910345;29;20136;-67
2022/09/22 03:05:26;;;;;;;12.30;8.70;;;;;;;5.74;84.56;102301.28;4911010;29;20051;-67
2022/09/22 03:07:54;;;;;;;10.50;8.50;;;;;;;5.72;84.72;102308.22;4912605;29;20137;-66
2022/09/22 03:10:21;;;;;;;11.60;8.70;;;;;;;5.71;84.92;102300.38;4912191;29;20044;-68
2022/09/22 03:12:48;;;;;;;13.88;8.13;;;;;;;5.71;84.72;102308.22;4911731;29;20052;-68
2022/09/22 03:15:35;;;;;;;11.00;8.40;;;;;;;5.69;84.70;102302.97;4910401;29;20583;-66
2022/09/22 03:18:03;;;;;;;10.25;7.97;;;;;;;5.67;84.89;102299.44;4910886;29;20219;-67
2022/09/22 03:20:30;;;;;;;11.18;8.45;;;;;;;5.66;84.99;102302.91;4911371;29;20045;-67
2022/09/22 03:22:57;;;;;;;10.95;8.30;;;;;;;5.67;85.18;102303.78;4912232;29;20959;-67
2022/09/22 03:25:24;;;;;;;10.50;8.45;;;;;;;5.65;85.11;102303.78;4910953;29;20504;-67
2022/09/22 03:27:51;;;;;;;13.52;9.70;;;;;;;5.63;85.01;102296.78;4910611;29;20116;-66
2022/09/22 03:30:18;;;;;;;10.73;8.90;;;;;;;5.62;85.17;102295.00;4913617;29;20112;-66
2022/09/22 03:32:45;;;;;;;14.20;9.20;;;;;;;5.62;85.28;102295.00;4913420;29;20049;-66
2022/09/22 03:35:12;;;;;;;11.02;8.55;;;;;;;5.61;85.21;102299.34;4908076;29;20518;-66
2022/09/22 03:37:39;;;;;;;9.25;7.97;;;;;;;5.62;85.34;102295.00;4912747;29;20049;-66
2022/09/22 03:40:08;;;;;;;13.55;8.35;;;;;;;5.59;85.36;102288.88;4911255;29;20045;-67
2022/09/22 03:42:35;;;;;;;13.10;8.48;;;;;;;5.58;85.39;102283.63;4910121;29;20049;-68
2022/09/22 03:45:04;;;;;;;12.27;9.13;;;;;;;5.57;85.37;102287.09;4911794;29;20045;-68
2022/09/22 03:47:32;;;;;;;11.52;9.15;;;;;;;5.55;85.51;102286.19;4910514;29;20044;-68
2022/09/22 03:49:59;;;;;;;10.00;8.35;;;;;;;5.55;85.42;102291.44;4906803;29;20083;-68
2022/09/22 03:52:26;;;;;;;14.63;8.30;;;;;;;5.56;85.70;102290.56;4906785;29;20053;-68
2022/09/22 03:54:53;;;;;;;10.27;8.63;;;;;;;5.57;85.64;102287.09;4912159;29;20048;-68
2022/09/22 03:57:20;;;;;;;17.02;9.77;;;;;;;5.58;85.71;102291.47;4906377;29;20053;-68
2022/09/22 03:59:47;;;;;;;17.70;10.00;;;;;;;5.60;85.69;102287.13;4911621;29;20041;-67
2022/09/22 04:02:15;;;;;;;14.43;10.10;;;;;;;5.59;85.63;102283.63;4912596;29;20510;-67
2022/09/22 04:04:42;;;;;;;15.10;10.45;;;;;;;5.62;85.73;102279.31;4911409;29;20045;-67
2022/09/22 04:07:09;;;;;;;13.30;10.10;;;;;;;5.63;85.80;102283.69;4911664;29;20175;-67
2022/09/22 04:09:36;;;;;;;14.45;10.30;;;;;;;5.63;85.98;102274.09;4913598;29;20099;-67
2022/09/22 04:12:03;;;;;;;13.07;10.05;;;;;;;5.64;85.92;102281.06;4907370;29;20056;-68
2022/09/22 04:14:30;;;;;;;12.18;9.80;;;;;;;5.63;86.02;102270.59;4902773;29;20045;-68
2022/09/22 04:16:57;;;;;;;15.30;10.32;;;;;;;5.63;86.10;102270.59;4910577;29;20548;-67
2022/09/22 04:19:25;;;;;;;15.00;9.93;;;;;;;5.62;86.11;102269.72;4911074;29;20048;-67
2022/09/22 04:21:52;;;;;;;12.80;10.13;;;;;;;5.59;86.05;102267.94;4911296;29;20065;-68
2022/09/22 04:24:23;;;;;;;14.40;9.95;;;;;;;5.59;85.97;102264.47;4909699;29;20045;-68
2022/09/22 04:26:50;;;;;;;16.27;10.55;;;;;;;5.56;86.12;102270.50;4910567;29;20092;-67
2022/09/22 04:29:37;;;;;;;16.10;9.95;;;;;;;5.53;86.00;102266.97;4912042;29;20072;-65
2022/09/22 04:32:05;;;;;;;13.35;9.73;;;;;;;5.52;86.08;102271.34;4911221;29;20077;-65
2022/09/22 04:34:32;;;;;;;14.75;9.85;;;;;;;5.49;86.15;102270.44;4909180;29;20049;-68
2022/09/22 04:36:59;;;;;;;12.43;9.43;;;;;;;5.48;86.20;102271.28;4907809;29;20053;-67
2022/09/22 04:39:27;;;;;;;14.82;10.02;;;;;;;5.47;86.33;102264.28;4914622;29;20521;-67
2022/09/22 04:41:54;;;;;;;19.63;10.38;;;;;;;5.47;86.41;102262.53;4914855;29;20055;-67
2022/09/22 04:44:22;;;;;;;15.25;9.63;;;;;;;5.46;86.36;102260.78;4912275;28;20045;-67
2022/09/22 04:46:49;;;;;;;16.85;10.80;;;;;;;5.49;86.67;102262.56;4913033;29;20195;-68
2022/09/22 04:49:17;;;;;;;14.77;10.20;;;;;;;5.51;86.76;102260.84;4914408;29;20048;-68
2022/09/22 04:51:45;;;;;;;15.88;10.68;;;;;;;5.53;86.83;102260.03;4909417;29;20045;-68
2022/09/22 04:54:13;;;;;;;20.35;10.23;;;;;;;5.57;87.05;102261.81;4909184;29;20121;-68
2022/09/22 04:56:41;;;;;;;17.08;11.40;;;;;;;5.59;86.93;102262.69;4897459;29;20124;-68
2022/09/22 04:59:09;;;;;;;18.10;11.70;;;;;;;5.60;86.92;102258.34;4914687;29;20048;-68
2022/09/22 05:01:37;;;;;;;18.80;12.10;;;;;;;5.59;87.20;102265.31;4914281;29;20048;-68
2022/09/22 05:04:04;;;;;;;18.35;11.50;;;;;;;5.62;87.03;102269.72;4914110;29;20150;-67
2022/09/22 05:06:31;;;;;;;18.42;11.02;;;;;;;5.64;87.02;102274.97;4903986;29;20056;-67
2022/09/22 05:08:58;;;;;;;14.88;13.27;;;;;;;5.65;87.27;102274.09;4904969;29;20810;-68
2022/09/22 05:11:25;;;;;;;18.75;11.02;;;;;;;5.72;87.71;102273.34;4896584;29;20051;-68
2022/09/22 05:13:52;;;;;;;15.65;12.25;;;;;;;5.82;87.84;102271.69;4911658;29;20504;-66
2022/09/22 05:16:19;;;;;;;17.60;12.35;;;;;;;5.85;87.50;102272.59;4909457;29;20536;-66
2022/09/22 05:18:48;;;;;;;14.43;11.00;;;;;;;5.85;87.42;102279.59;4904368;29;20045;-66
2022/09/22 05:21:20;;;;;;;15.02;10.75;;;;;;;5.83;87.31;102278.69;4896855;29;20061;-66
2022/09/22 05:23:47;;;;;;;19.40;12.98;;;;;;;5.81;87.41;102278.69;4908723;29;20040;-66
2022/09/22 05:26:14;;;;;;;18.67;12.68;;;;;;;5.81;87.35;102277.78;4911660;29;20052;-65
2022/09/22 05:28:41;;;;;;;18.50;10.85;;;;;;;5.82;87.47;102276.94;4907020;29;20079;-66
2022/09/22 05:31:13;;;;;;;17.75;12.60;;;;;;;5.86;87.77;102271.75;4906803;29;20041;-66
2022/09/22 05:33:42;;;;;;;14.60;11.68;;;;;;;5.89;87.72;102282.28;4904811;29;20041;-66
2022/09/22 05:36:09;;;;;;;17.33;12.07;;;;;;;5.93;87.75;102283.19;4907275;29;20041;-66
2022/09/22 05:38:36;;;;;;;19.60;12.60;;;;;;;5.96;87.65;102285.84;4902735;29;20045;-66
2022/09/22 05:41:04;;;;;;;16.35;12.18;;;;;;;5.98;87.73;102275.38;4905370;29;20040;-66
2022/09/22 05:43:31;;;;;;;12.88;11.52;;;;;;;6.00;87.70;102281.56;4912400;29;20056;-66
2022/09/22 05:45:58;;;;;;;18.42;13.25;;;;;;;6.03;87.66;102273.75;4913907;29;20044;-66
2022/09/22 05:48:25;;;;;;;22.38;12.35;;;;;;;6.07;87.57;102280.75;4914332;29;20047;-66
2022/09/22 05:50:57;;;;;;;22.23;12.80;;;;;;;6.12;87.63;102281.69;4914854;29;20119;-67
2022/09/22 05:53:26;;;;;;;19.17;12.18;;;;;;;6.16;87.57;102278.25;4914111;29;20056;-67
2022/09/22 05:55:55;;;;;;;26.05;12.13;;;;;;;6.20;87.61;102284.41;4915620;29;20492;-67
2022/09/22 05:58:22;;;;;;;17.17;12.32;;;;;;;6.22;87.51;102280.94;4915226;29;20044;-67
2022/09/22 06:00:49;;;;;;;16.00;11.82;;;;;;;6.28;87.42;102282.75;4915097;29;20119;-67
2022/09/22 06:03:16;;;;;;;16.90;12.27;;;;;;;6.32;87.34;102281.91;4915508;29;20104;-67
2022/09/22 06:05:44;;;;;;;15.30;11.45;;;;;;;6.37;87.27;102290.72;4913289;29;20109;-67
2022/09/22 06:08:15;;;;;;;16.58;12.40;;;;;;;6.45;87.20;102282.03;4915906;29;20041;-67
2022/09/22 06:10:47;;;;;;;15.82;11.38;;;;;;;6.51;87.23;102285.59;4915475;29;20556;-67
2022/09/22 06:13:14;;;;;;;20.13;12.52;;;;;;;6.61;87.22;102283.97;4914783;29;20044;-67
2022/09/22 06:15:48;;;;;;;16.70;12.07;;;;;;;6.71;86.97;102286.66;4914573;29;20552;-67
2022/09/22 06:18:19;;;;;;;15.18;12.25;;;;;;;6.78;87.14;102280.59;4915155;29;20050;-67
2022/09/22 06:20:51;;;;;;;17.42;12.32;;;;;;;6.87;87.05;102290.31;4913727;29;20040;-67
2022/09/22 06:23:18;;;;;;;27.50;13.75;;;;;;;6.96;87.06;102282.50;4915227;29;20044;-67
2022/09/22 06:25:45;;;;;;;20.00;12.73;;;;;;;7.05;86.95;102279.06;4915073;29;20048;-67
2022/09/22 06:28:13;;;;;;;23.10;12.07;;;;;;;7.13;86.86;102282.59;4914319;29;20116;-67
2022/09/22 06:30:41;;;;;;;30.98;14.00;;;;;;;7.22;86.86;102285.31;4915157;29;20124;-67
2022/09/22 06:33:10;;;;;;;21.20;12.02;;;;;;;7.29;86.91;102279.25;4914885;29;20462;-67
2022/09/22 06:35:41;;;;;;;17.13;12.05;;;;;;;7.41;86.72;102282.81;4913941;29;20131;-67
2022/09/22 06:38:16;;;;;;;18.77;12.63;;;;;;;7.50;86.76;102282.84;4914823;29;20048;-67
2022/09/22 06:40:43;;;;;;;26.55;12.52;;;;;;;7.60;86.82;102283.78;4914863;29;20041;-67
2022/09/22 06:43:19;;;;;;;20.77;12.18;;;;;;;7.71;86.81;102287.31;4914570;29;20045;-67
2022/09/22 06:45:51;;;;;;;20.35;12.70;;;;;;;7.80;86.54;102286.50;4914717;29;20053;-67
2022/09/22 06:48:22;;;;;;;17.63;12.38;;;;;;;7.91;86.63;102290.06;4914830;29;20048;-66
2022/09/22 06:50:53;;;;;;;16.90;11.43;;;;;;;8.02;86.64;102283.97;4913189;29;20051;-67
2022/09/22 06:53:20;;;;;;;18.02;11.18;;;;;;;8.11;86.71;102284.00;4914672;29;20569;-67
2022/09/22 06:55:52;;;;;;;25.15;12.00;;;;;;;8.23;86.68;102289.28;4914933;29;20052;-67
2022/09/22 06:58:21;;;;;;;20.50;11.13;;;;;;;8.33;86.78;102287.53;4914553;29;20744;-67
2022/09/22 07:00:49;;;;;;;17.45;10.52;;;;;;;8.46;86.51;102287.56;4914565;29;20049;-67
2022/09/22 07:03:23;;;;;;;15.63;9.70;;;;;;;8.57;86.49;102283.25;4914390;29;20071;-67
2022/09/22 07:05:59;;;;;;;16.20;10.47;;;;;;;8.68;86.38;102284.13;4913433;29;20424;-67
2022/09/22 07:08:32;;;;;;;29.80;11.60;;;;;;;8.79;86.34;102278.88;4914574;29;20263;-68
2022/09/22 07:11:07;;;;;;;17.10;10.13;;;;;;;8.90;86.21;102281.50;4914568;29;20128;-67
2022/09/22 07:13:39;;;;;;;16.90;10.82;;;;;;;9.01;86.09;102281.50;4914656;29;20531;-67
2022/09/22 07:16:10;;;;;;;17.38;9.40;;;;;;;9.14;86.11;102283.25;4913896;29;20040;-67
2022/09/22 07:18:46;;;;;;;17.27;10.32;;;;;;;9.27;85.58;102281.47;4914092;29;20052;-68
2022/09/22 07:21:20;;;;;;;15.10;9.50;;;;;;;9.39;85.63;102277.91;4911865;29;20060;-68
2022/09/22 07:23:49;;;;;;;25.60;10.13;;;;;;;9.52;85.35;102277.91;4914194;29;20056;-68
2022/09/22 07:26:27;;;;;;;18.25;9.65;;;;;;;9.63;85.29;102270.84;4914494;29;20041;-68
2022/09/22 07:28:58;;;;;;;19.73;9.65;;;;;;;9.76;84.71;102280.47;4914314;29;20100;-68
2022/09/22 07:31:28;;;;;;;13.90;9.55;;;;;;;9.87;84.58;102277.75;4914281;29;20044;-68
2022/09/22 07:33:58;;;;;;;13.77;8.43;;;;;;;10.01;84.17;102272.44;4914226;29;20048;-68
2022/09/22 07:36:30;;;;;;;14.68;8.18;;;;;;;10.09;83.78;102273.25;4913511;29;20044;-68
2022/09/22 07:39:06;;;;;;;20.42;8.75;;;;;;;10.23;83.15;102282.84;4913911;29;20049;-68
2022/09/22 07:41:41;;;;;;;26.95;9.10;;;;;;;10.30;83.20;102273.16;4913216;29;20047;-68
2022/09/22 07:46:59;;;;;;;12.15;7.78;;;;;;;10.59;82.73;102274.75;4914025;29;20057;-68
2022/09/22 07:49:27;;;;;;;14.38;7.43;;;;;;;10.69;82.38;102268.50;4913007;29;20072;-68
2022/09/22 07:51:56;;;;;;;11.63;7.43;;;;;;;10.81;81.67;102264.88;4895342;29;20109;-68
2022/09/22 07:54:26;;;;;;;14.60;8.18;;;;;;;10.92;81.60;102268.31;4905169;29;20053;-68
2022/09/22 07:57:01;;;;;;;18.05;7.85;;;;;;;11.05;81.47;102276.97;4914289;29;20067;-68
2022/09/22 07:59:28;;;;;;;;;;;;;;;11.14;80.98;102271.63;4915034;29;20040;-68
2022/09/22 08:01:55;;;;;;;13.45;7.75;;;;;;;11.26;80.75;102270.63;4916062;29;19927;-68
2022/09/22 08:04:25;;;;;;;14.27;8.52;;;;;;;11.37;80.86;102267.88;4916930;29;20049;-68
2022/09/22 08:06:54;;;;;;;15.63;8.40;;;;;;;11.53;80.54;102265.94;4917432;29;20059;-68
2022/09/22 08:09:24;;;;;;;17.10;7.97;;;;;;;11.68;80.61;102264.00;4917285;29;20049;-68
2022/09/22 08:11:51;;;;;;;16.67;8.48;;;;;;;11.81;79.92;102268.22;4917101;29;20584;-68
2022/09/22 08:14:22;;;;;;;11.85;8.38;;;;;;;11.95;79.66;102260.16;4917056;29;20048;-68
2022/09/22 08:16:52;;;;;;;14.27;8.50;;;;;;;12.08;79.42;102268.81;4916838;29;20055;-67
2022/09/22 08:19:22;;;;;;;17.75;7.85;;;;;;;12.21;79.07;102266.88;4915884;29;20750;-68
2022/09/22 08:21:52;;;;;;;24.40;8.82;;;;;;;12.32;78.94;102259.66;4916956;29;20057;-68
2022/09/22 08:24:21;;;;;;;16.77;7.88;;;;;;;12.43;78.18;102254.19;4916725;29;20120;-68
2022/09/22 08:26:53;;;;;;;23.77;9.30;;;;;;;12.56;77.84;102253.09;4916819;29;20052;-68
2022/09/22 08:29:23;;;;;;;15.50;8.25;;;;;;;12.68;77.39;102251.16;4916659;29;20052;-68
2022/09/22 08:31:50;;;;;;;15.45;9.10;;;;;;;12.81;75.80;102250.06;4916951;29;20052;-68
2022/09/22 08:34:17;;;;;;;16.25;8.35;;;;;;;12.94;75.04;102253.34;4916231;29;20457;-67
2022/09/22 08:36:47;;;;;;;16.38;7.93;;;;;;;13.05;74.72;102259.34;4916489;29;20104;-68
2022/09/22 08:39:17;;;;;;;31.00;10.13;;;;;;;13.20;73.81;102249.34;4916685;29;20116;-68
2022/09/22 08:42:09;;;;;;;20.48;9.70;;;;;;;13.33;73.94;102249.97;4916689;29;20044;-68
2022/09/22 08:44:48;;;;;;;19.17;9.10;;;;;;;13.42;74.35;102244.56;4915864;29;20047;-68
2022/09/22 08:53:22;;;;;;;15.30;7.80;;;;;;;13.85;72.17;102249.84;4915857;29;20044;-67
2022/09/22 08:56:05;;;;;;;15.00;7.82;;;;;;;13.96;71.82;102246.06;4916516;29;20048;-68
2022/09/22 08:59:01;;;;;;;20.60;7.95;;;;;;;14.07;71.71;102247.63;4915901;29;20044;-68
2022/09/22 09:01:45;;;;;;;14.88;7.68;;;;;;;14.22;71.15;102249.03;4915786;29;20136;-68
2022/09/22 09:04:49;;;;;;;21.23;7.53;;;;;;;14.33;69.94;102251.44;4915031;29;20044;-68
2022/09/22 09:07:56;;;;;;;12.45;5.60;;;;;;;14.44;69.56;102254.69;4907259;29;20049;-68
2022/09/22 09:11:01;;;;;;;16.67;6.30;;;;;;;14.57;69.67;102249.97;4914967;29;20040;-68
2022/09/22 09:13:55;;;;;;;13.05;6.20;;;;;;;14.67;69.11;102246.19;4907581;29;20043;-68
2022/09/22 09:16:45;;;;;;;9.07;5.40;;;;;;;14.84;68.27;102245.78;4916196;29;20187;-68
2022/09/22 09:19:51;;;;;;;8.80;4.93;;;;;;;14.99;67.17;102255.13;4897248;29;20470;-68
2022/09/22 09:22:26;;;;;;;8.40;4.53;;;;;;;15.11;67.36;102253.06;4902434;29;20136;-68
2022/09/22 09:25:14;;;;;;;17.75;5.75;;;;;;;15.20;65.87;102252.81;4897539;29;20045;-68
2022/09/22 09:27:58;;;;;;;8.90;4.80;;;;;;;15.24;65.97;102246.50;4916283;29;20048;-68
2022/09/22 09:30:31;;;;;;;11.82;5.25;;;;;;;15.34;66.31;102239.13;4916156;29;20056;-68
2022/09/22 09:33:03;;;;;;;9.43;5.45;;;;;;;15.42;66.22;102239.78;4912043;29;20052;-68
2022/09/22 09:35:45;;;;;;;9.50;5.35;;;;;;;15.54;65.52;102241.25;4916414;29;20047;-68
2022/09/22 09:38:18;;;;;;;9.77;4.55;;;;;;;15.64;65.67;102240.06;4915887;29;20048;-68
2022/09/22 09:40:53;;;;;;;6.25;3.70;;;;;;;15.76;65.46;102241.47;4911292;29;20060;-68
2022/09/22 09:43:24;;;;;;;8.00;3.92;;;;;;;15.89;64.16;102241.13;4897191;29;20045;-68
2022/09/22 09:46:25;;;;;;;7.45;4.30;;;;;;;16.06;64.18;102245.94;4909673;29;20055;-68
2022/09/22 09:49:08;;;;;;;6.00;3.30;;;;;;;16.21;64.21;102234.78;4915331;29;20052;-68
2022/09/22 09:51:42;;;;;;;6.13;3.03;;;;;;;16.27;62.58;102234.63;4916047;29;20040;-68
2022/09/22 09:54:14;;;;;;;7.97;3.00;;;;;;;16.35;61.12;102230.84;4915306;29;20144;-68
2022/09/22 09:57:22;;;;;;;6.82;2.70;;;;;;;16.44;61.19;102235.84;4914127;29;20252;-68
2022/09/22 10:00:30;;;;;;;11.73;3.80;;;;;;;16.49;61.25;102227.72;4838153;29;20052;-68
2022/09/22 10:03:22;;;;;;;9.50;3.90;;;;;;;16.61;61.26;102227.31;4832713;29;20631;-68
2022/09/22 10:06:01;;;;;;;7.82;3.75;;;;;;;16.70;58.87;102226.09;4898559;29;20056;-68
2022/09/22 10:08:43;;;;;;;8.32;3.70;;;;;;;16.79;59.67;102222.28;4915304;29;20041;-68
2022/09/22 10:11:13;;;;;;;33.88;6.72;;;;;;;16.84;59.15;102221.19;4913581;29;20056;-68
2022/09/22 10:13:42;;;;;;;11.48;3.95;;;;;;;16.94;59.70;102220.91;4915393;29;20124;-68
2022/09/22 10:16:29;;;;;;;6.40;4.30;;;;;;;17.06;58.64;102217.81;4914434;29;20040;-68
2022/09/22 10:19:04;;;;;;;6.68;4.68;;;;;;;17.10;59.00;102219.41;4929060;29;20097;-68
2022/09/22 10:21:36;;;;;;;8.85;4.50;;;;;;;17.11;59.00;102209.63;4897738;29;20068;-68
2022/09/22 10:24:28;;;;;;;13.55;4.78;;;;;;;17.18;58.59;102211.16;4912340;29;20045;-68
2022/09/22 10:26:56;;;;;;;9.45;4.65;;;;;;;17.28;59.28;102207.22;4894576;29;20045;-68
2022/09/22 10:29:24;;;;;;;8.02;4.13;;;;;;;17.35;58.63;102210.53;4909512;29;20044;-68
2022/09/22 10:32:24;;;;;;;7.15;3.92;;;;;;;17.45;56.81;102206.59;4915569;29;20037;-68
2022/09/22 10:34:53;;;;;;;10.48;4.43;;;;;;;17.53;57.41;102203.66;4869305;29;20061;-68
2022/09/22 10:37:27;;;;;;;8.50;4.30;;;;;;;17.64;57.04;102197.88;4915063;29;20045;-68
2022/09/22 10:40:02;;;;;;;7.32;3.78;;;;;;;17.72;56.48;102187.78;4915009;29;20048;-68
2022/09/22 10:42:44;;;;;;;12.40;4.03;;;;;;;17.79;56.68;102188.44;4914899;29;20052;-68
2022/09/22 10:45:15;;;;;;;9.85;4.40;;;;;;;17.85;55.61;102182.88;4914324;29;20056;-68
2022/09/22 10:48:15;;;;;;;11.35;4.25;;;;;;;17.96;54.81;102187.75;4898834;29;20045;-68
2022/09/22 10:51:03;;;;;;;9.07;4.63;;;;;;;18.03;55.74;102180.41;4913537;29;20048;-68
2022/09/22 10:53:45;;;;;;;8.02;3.90;;;;;;;18.10;55.01;102182.78;4914537;29;20100;-68
2022/09/22 10:56:37;;;;;;;6.05;3.67;;;;;;;18.25;53.73;102173.28;4914369;29;20053;-68
2022/09/22 10:59:50;;;;;;;4.53;2.83;;;;;;;18.36;51.79;102172.81;4914667;29;20536;-68
2022/09/22 11:02:49;;;;;;;5.32;3.20;;;;;;;18.46;52.75;102173.28;4877601;29;20116;-68
2022/09/22 11:12:44;;;;;;;5.57;3.20;;;;;;;18.87;50.17;102161.72;4914114;29;20475;-68
2022/09/22 11:15:23;;;;;;;7.90;3.22;;;;;;;18.97;51.20;102167.59;4914180;29;20052;-68
2022/09/22 11:18:18;;;;;;;5.93;3.30;;;;;;;19.05;50.81;102165.44;4914624;29;20513;-68
2022/09/22 11:21:23;;;;;;;7.55;3.17;;;;;;;19.01;50.76;102159.34;4894159;29;20120;-68
2022/09/22 11:24:08;;;;;;;7.43;2.83;;;;;;;19.14;47.79;102148.97;4897014;29;20124;-68
2022/09/22 11:26:47;;;;;;;6.25;2.40;;;;;;;19.22;49.11;102157.50;4895381;29;20049;-68
2022/09/22 11:29:21;;;;;;;9.02;2.70;;;;;;;19.28;49.07;102153.66;4905308;29;20040;-68
2022/09/22 11:32:01;;;;;;;9.48;2.97;;;;;;;19.37;48.33;102153.25;4913907;29;20627;-68
2022/09/22 11:34:38;;;;;;;5.70;2.55;;;;;;;19.48;48.62;102155.44;4914380;29;20454;-68
2022/09/22 11:37:26;;;;;;;7.53;2.92;;;;;;;19.70;45.54;102146.34;4908468;29;20052;-69
2022/09/22 11:40:50;;;;;;;10.43;3.33;;;;;;;19.86;46.50;102147.38;4920595;29;20041;-69
2022/09/22 11:43:57;;;;;;;9.52;3.13;;;;;;;19.93;45.87;102141.72;4920136;29;20095;-68
2022/09/22 11:46:51;;;;;;;6.63;2.20;;;;;;;19.78;46.60;102137.97;4916547;29;20057;-69
2022/09/22 11:49:39;;;;;;;6.22;2.05;;;;;;;19.85;43.45;102137.63;4918614;29;20049;-69
2022/09/22 11:52:42;;;;;;;3.67;2.00;;;;;;;19.86;43.37;102125.09;4919502;29;20056;-68
2022/09/22 11:55:41;;;;;;;6.70;2.92;;;;;;;19.88;43.19;102127.72;4920126;29;20228;-68
2022/09/22 11:58:17;;;;;;;3.97;2.15;;;;;;;19.96;42.08;102125.53;4909377;29;20048;-69
2022/09/22 12:00:59;;;;;;;3.10;2.15;;;;;;;19.99;43.23;102117.34;4919949;29;20051;-69
2022/09/22 12:03:50;;;;;;;3.22;1.67;;;;;;;20.20;44.20;102109.16;4920377;29;20902;-68
2022/09/22 12:06:25;;;;;;;3.88;2.00;;;;;;;20.48;43.57;102105.91;4919273;29;20040;-68
2022/09/22 12:09:01;;;;;;;12.50;2.72;;;;;;;20.30;43.09;102108.63;4918933;29;20045;-69
2022/09/22 12:11:35;;;;;;;3.08;1.92;;;;;;;20.21;41.99;102106.41;4919795;29;20131;-68
2022/09/22 12:14:04;;;;;;;;;;;;;;;20.25;42.49;102097.25;4920103;29;20048;-68
2022/09/22 12:16:57;;;;;;;7.00;2.30;;;;;;;20.46;42.56;102087.25;4919303;29;19937;-69
2022/09/22 12:20:24;;;;;;;5.88;1.90;;;;;;;20.60;42.96;102086.53;4919695;29;20040;-68